sensor_id;sensor_type;location;lat;lon;timestamp;P1;durP1;ratioP1;P2;durP2;ratioP2
54909;SDS011;63189;51.240;9.964;2023-04-01T00:00:56;4.30;;;1.10;;
54909;SDS011;63189;51.240;9.964;2023-04-01T00:03:24;7.38;;;1.60;;
54909;SDS011;63189;51.240;9.964;2023-04-01T00:06:13;3.88;;;1.20;;
54909;SDS011;63189;51.240;9.964;2023-04-01T00:08:40;5.22;;;1.52;;
54909;SDS011;63189;51.240;9.964;2023-04-01T00:11:06;5.88;;;1.50;;
54909;SDS011;63189;51.240;9.964;2023-04-01T00:13:31;6.90;;;1.30;;
54909;SDS011;63189;51.240;9.964;2023-04-01T00:15:57;6.80;;;1.58;;
54909;SDS011;63189;51.240;9.964;2023-04-01T00:18:23;6.80;;;1.60;;
54909;SDS011;63189;51.240;9.964;2023-04-01T00:20:50;4.47;;;1.52;;
54909;SDS011;63189;51.240;9.964;2023-04-01T00:23:17;6.45;;;1.45;;
54909;SDS011;63189;51.240;9.964;2023-04-01T00:25:44;5.90;;;1.45;;
54909;SDS011;63189;51.240;9.964;2023-04-01T00:28:10;3.80;;;1.33;;
54909;SDS011;63189;51.240;9.964;2023-04-01T00:30:38;5.95;;;1.33;;
54909;SDS011;63189;51.240;9.964;2023-04-01T00:33:03;4.00;;;1.10;;
54909;SDS011;63189;51.240;9.964;2023-04-01T00:35:29;3.20;;;1.30;;
54909;SDS011;63189;51.240;9.964;2023-04-01T00:37:55;4.07;;;1.40;;
54909;SDS011;63189;51.240;9.964;2023-04-01T00:40:25;6.22;;;1.40;;
54909;SDS011;63189;51.240;9.964;2023-04-01T00:42:55;5.38;;;1.13;;
54909;SDS011;63189;51.240;9.964;2023-04-01T00:47:56;4.60;;;1.40;;
54909;SDS011;63189;51.240;9.964;2023-04-01T00:50:24;4.78;;;1.30;;
54909;SDS011;63189;51.240;9.964;2023-04-01T00:52:50;7.07;;;1.50;;
54909;SDS011;63189;51.240;9.964;2023-04-01T00:55:16;4.72;;;1.42;;
54909;SDS011;63189;51.240;9.964;2023-04-01T00:57:45;3.08;;;1.42;;
54909;SDS011;63189;51.240;9.964;2023-04-01T01:00:11;5.55;;;1.35;;
54909;SDS011;63189;51.240;9.964;2023-04-01T01:02:41;4.43;;;1.30;;
54909;SDS011;63189;51.240;9.964;2023-04-01T01:05:08;5.30;;;1.23;;
54909;SDS011;63189;51.240;9.964;2023-04-01T01:15:32;4.15;;;1.08;;
54909;SDS011;63189;51.240;9.964;2023-04-01T01:23:54;3.00;;;1.10;;
54909;SDS011;63189;51.240;9.964;2023-04-01T01:32:07;2.55;;;1.00;;
54909;SDS011;63189;51.240;9.964;2023-04-01T01:34:50;5.68;;;1.45;;
54909;SDS011;63189;51.240;9.964;2023-04-01T01:37:27;5.70;;;1.25;;
54909;SDS011;63189;51.240;9.964;2023-04-01T01:39:57;3.78;;;1.50;;
54909;SDS011;63189;51.240;9.964;2023-04-01T01:42:26;3.28;;;1.20;;
54909;SDS011;63189;51.240;9.964;2023-04-01T01:44:55;4.95;;;1.30;;
54909;SDS011;63189;51.240;9.964;2023-04-01T01:47:22;2.17;;;1.00;;
54909;SDS011;63189;51.240;9.964;2023-04-01T01:49:48;9.13;;;1.65;;
54909;SDS011;63189;51.240;9.964;2023-04-01T01:52:16;3.45;;;1.13;;
54909;SDS011;63189;51.240;9.964;2023-04-01T01:54:52;2.15;;;0.95;;
54909;SDS011;63189;51.240;9.964;2023-04-01T01:57:21;7.47;;;1.20;;
54909;SDS011;63189;51.240;9.964;2023-04-01T01:59:51;7.22;;;1.50;;
54909;SDS011;63189;51.240;9.964;2023-04-01T02:02:20;2.80;;;1.10;;
54909;SDS011;63189;51.240;9.964;2023-04-01T02:04:47;6.10;;;1.50;;
54909;SDS011;63189;51.240;9.964;2023-04-01T02:07:16;4.82;;;1.20;;
54909;SDS011;63189;51.240;9.964;2023-04-01T02:09:47;2.85;;;1.10;;
54909;SDS011;63189;51.240;9.964;2023-04-01T02:12:13;3.55;;;1.23;;
54909;SDS011;63189;51.240;9.964;2023-04-01T02:14:55;4.25;;;1.30;;
54909;SDS011;63189;51.240;9.964;2023-04-01T02:17:29;3.90;;;1.30;;
54909;SDS011;63189;51.240;9.964;2023-04-01T02:19:57;3.70;;;1.30;;
54909;SDS011;63189;51.240;9.964;2023-04-01T02:22:27;6.00;;;1.48;;
54909;SDS011;63189;51.240;9.964;2023-04-01T02:24:55;6.20;;;1.38;;
54909;SDS011;63189;51.240;9.964;2023-04-01T02:27:23;3.63;;;1.33;;
54909;SDS011;63189;51.240;9.964;2023-04-01T02:29:50;5.43;;;1.50;;
54909;SDS011;63189;51.240;9.964;2023-04-01T02:32:18;5.35;;;1.40;;
54909;SDS011;63189;51.240;9.964;2023-04-01T02:34:44;3.70;;;1.10;;
54909;SDS011;63189;51.240;9.964;2023-04-01T02:37:11;3.90;;;1.00;;
54909;SDS011;63189;51.240;9.964;2023-04-01T02:39:38;2.67;;;1.00;;
54909;SDS011;63189;51.240;9.964;2023-04-01T02:42:04;4.68;;;1.38;;
54909;SDS011;63189;51.240;9.964;2023-04-01T02:44:30;2.33;;;1.05;;
54909;SDS011;63189;51.240;9.964;2023-04-01T02:46:55;5.03;;;1.58;;
54909;SDS011;63189;51.240;9.964;2023-04-01T02:49:20;5.60;;;1.30;;
54909;SDS011;63189;51.240;9.964;2023-04-01T02:51:46;2.60;;;1.38;;
54909;SDS011;63189;51.240;9.964;2023-04-01T02:54:13;4.55;;;1.30;;
54909;SDS011;63189;51.240;9.964;2023-04-01T02:56:38;5.40;;;1.00;;
54909;SDS011;63189;51.240;9.964;2023-04-01T02:59:03;3.28;;;1.00;;
54909;SDS011;63189;51.240;9.964;2023-04-01T03:01:29;2.75;;;1.00;;
54909;SDS011;63189;51.240;9.964;2023-04-01T03:03:54;4.25;;;1.30;;
54909;SDS011;63189;51.240;9.964;2023-04-01T03:06:19;5.35;;;1.33;;
54909;SDS011;63189;51.240;9.964;2023-04-01T03:08:45;4.18;;;1.10;;
54909;SDS011;63189;51.240;9.964;2023-04-01T03:11:11;2.22;;;1.00;;
54909;SDS011;63189;51.240;9.964;2023-04-01T03:13:37;2.72;;;1.10;;
54909;SDS011;63189;51.240;9.964;2023-04-01T03:16:02;5.78;;;1.27;;
54909;SDS011;63189;51.240;9.964;2023-04-01T03:18:28;2.13;;;1.00;;
54909;SDS011;63189;51.240;9.964;2023-04-01T03:20:53;2.55;;;0.85;;
54909;SDS011;63189;51.240;9.964;2023-04-01T03:23:19;3.00;;;1.10;;
54909;SDS011;63189;51.240;9.964;2023-04-01T03:25:46;3.08;;;1.20;;
54909;SDS011;63189;51.240;9.964;2023-04-01T03:28:12;6.63;;;1.45;;
54909;SDS011;63189;51.240;9.964;2023-04-01T03:30:38;3.92;;;1.10;;
54909;SDS011;63189;51.240;9.964;2023-04-01T03:33:06;5.85;;;1.45;;
54909;SDS011;63189;51.240;9.964;2023-04-01T03:35:31;6.63;;;1.48;;
54909;SDS011;63189;51.240;9.964;2023-04-01T03:37:57;6.07;;;1.15;;
54909;SDS011;63189;51.240;9.964;2023-04-01T03:40:22;2.72;;;1.05;;
54909;SDS011;63189;51.240;9.964;2023-04-01T03:42:49;3.30;;;1.38;;
54909;SDS011;63189;51.240;9.964;2023-04-01T03:45:15;3.33;;;0.93;;
54909;SDS011;63189;51.240;9.964;2023-04-01T03:47:40;3.83;;;1.50;;
54909;SDS011;63189;51.240;9.964;2023-04-01T03:50:06;4.68;;;1.13;;
54909;SDS011;63189;51.240;9.964;2023-04-01T03:52:32;1.70;;;0.85;;
54909;SDS011;63189;51.240;9.964;2023-04-01T03:54:58;2.22;;;1.10;;
54909;SDS011;63189;51.240;9.964;2023-04-01T03:57:23;7.20;;;1.33;;
54909;SDS011;63189;51.240;9.964;2023-04-01T03:59:49;2.13;;;1.10;;
54909;SDS011;63189;51.240;9.964;2023-04-01T04:02:14;5.60;;;1.00;;
54909;SDS011;63189;51.240;9.964;2023-04-01T04:04:40;3.25;;;1.00;;
54909;SDS011;63189;51.240;9.964;2023-04-01T04:07:06;3.55;;;1.10;;
54909;SDS011;63189;51.240;9.964;2023-04-01T04:09:31;7.50;;;1.30;;
54909;SDS011;63189;51.240;9.964;2023-04-01T04:11:58;4.57;;;1.10;;
54909;SDS011;63189;51.240;9.964;2023-04-01T04:14:24;3.53;;;0.80;;
54909;SDS011;63189;51.240;9.964;2023-04-01T04:16:49;4.18;;;1.20;;
54909;SDS011;63189;51.240;9.964;2023-04-01T04:19:15;6.53;;;1.48;;
54909;SDS011;63189;51.240;9.964;2023-04-01T04:21:40;6.85;;;1.92;;
54909;SDS011;63189;51.240;9.964;2023-04-01T04:24:06;3.95;;;1.13;;
54909;SDS011;63189;51.240;9.964;2023-04-01T04:26:33;2.85;;;1.30;;
54909;SDS011;63189;51.240;9.964;2023-04-01T04:28:58;2.17;;;1.10;;
54909;SDS011;63189;51.240;9.964;2023-04-01T04:31:25;3.92;;;0.98;;
54909;SDS011;63189;51.240;9.964;2023-04-01T04:33:51;4.57;;;1.23;;
54909;SDS011;63189;51.240;9.964;2023-04-01T04:36:17;3.97;;;0.98;;
54909;SDS011;63189;51.240;9.964;2023-04-01T04:38:43;4.00;;;1.13;;
54909;SDS011;63189;51.240;9.964;2023-04-01T04:41:12;2.83;;;1.00;;
54909;SDS011;63189;51.240;9.964;2023-04-01T04:43:47;5.35;;;1.38;;
54909;SDS011;63189;51.240;9.964;2023-04-01T04:46:14;3.00;;;1.17;;
54909;SDS011;63189;51.240;9.964;2023-04-01T04:48:39;4.40;;;1.00;;
54909;SDS011;63189;51.240;9.964;2023-04-01T04:51:04;4.85;;;1.17;;
54909;SDS011;63189;51.240;9.964;2023-04-01T04:53:30;3.95;;;1.25;;
54909;SDS011;63189;51.240;9.964;2023-04-01T04:55:55;5.32;;;1.25;;
54909;SDS011;63189;51.240;9.964;2023-04-01T04:58:20;3.92;;;1.10;;
54909;SDS011;63189;51.240;9.964;2023-04-01T05:00:46;3.30;;;1.05;;
54909;SDS011;63189;51.240;9.964;2023-04-01T05:03:12;3.78;;;1.38;;
54909;SDS011;63189;51.240;9.964;2023-04-01T05:05:39;2.28;;;0.90;;
54909;SDS011;63189;51.240;9.964;2023-04-01T05:08:05;2.67;;;1.00;;
54909;SDS011;63189;51.240;9.964;2023-04-01T05:10:31;2.80;;;1.20;;
54909;SDS011;63189;51.240;9.964;2023-04-01T05:12:57;2.38;;;1.20;;
54909;SDS011;63189;51.240;9.964;2023-04-01T05:15:23;8.13;;;1.52;;
54909;SDS011;63189;51.240;9.964;2023-04-01T05:17:49;2.85;;;1.10;;
54909;SDS011;63189;51.240;9.964;2023-04-01T05:20:15;2.05;;;1.02;;
54909;SDS011;63189;51.240;9.964;2023-04-01T05:22:41;4.53;;;1.38;;
54909;SDS011;63189;51.240;9.964;2023-04-01T05:25:07;5.00;;;1.15;;
54909;SDS011;63189;51.240;9.964;2023-04-01T05:27:33;3.15;;;1.02;;
54909;SDS011;63189;51.240;9.964;2023-04-01T05:29:58;4.28;;;1.17;;
54909;SDS011;63189;51.240;9.964;2023-04-01T05:32:24;3.05;;;1.10;;
54909;SDS011;63189;51.240;9.964;2023-04-01T05:34:51;1.83;;;1.00;;
54909;SDS011;63189;51.240;9.964;2023-04-01T05:37:17;2.90;;;1.10;;
54909;SDS011;63189;51.240;9.964;2023-04-01T05:39:42;2.35;;;1.00;;
54909;SDS011;63189;51.240;9.964;2023-04-01T05:42:08;2.40;;;1.10;;
54909;SDS011;63189;51.240;9.964;2023-04-01T05:44:35;5.28;;;1.15;;
54909;SDS011;63189;51.240;9.964;2023-04-01T05:47:01;2.50;;;1.00;;
54909;SDS011;63189;51.240;9.964;2023-04-01T05:49:27;3.88;;;0.98;;
54909;SDS011;63189;51.240;9.964;2023-04-01T05:51:54;3.35;;;1.05;;
54909;SDS011;63189;51.240;9.964;2023-04-01T05:54:20;4.18;;;1.08;;
54909;SDS011;63189;51.240;9.964;2023-04-01T05:56:45;3.22;;;0.95;;
54909;SDS011;63189;51.240;9.964;2023-04-01T05:59:11;3.40;;;1.00;;
54909;SDS011;63189;51.240;9.964;2023-04-01T06:01:37;4.45;;;1.10;;
54909;SDS011;63189;51.240;9.964;2023-04-01T06:04:02;4.18;;;1.27;;
54909;SDS011;63189;51.240;9.964;2023-04-01T06:06:30;4.75;;;1.27;;
54909;SDS011;63189;51.240;9.964;2023-04-01T06:14:52;4.85;;;1.08;;
54909;SDS011;63189;51.240;9.964;2023-04-01T06:22:49;3.83;;;1.17;;
54909;SDS011;63189;51.240;9.964;2023-04-01T06:30:53;2.97;;;1.00;;
54909;SDS011;63189;51.240;9.964;2023-04-01T06:38:59;3.08;;;1.02;;
54909;SDS011;63189;51.240;9.964;2023-04-01T06:44:13;3.25;;;1.08;;
54909;SDS011;63189;51.240;9.964;2023-04-01T06:46:58;3.70;;;0.90;;
54909;SDS011;63189;51.240;9.964;2023-04-01T06:52:28;2.40;;;0.88;;
54909;SDS011;63189;51.240;9.964;2023-04-01T06:58:14;3.88;;;0.90;;
54909;SDS011;63189;51.240;9.964;2023-04-01T07:00:43;1.70;;;0.80;;
54909;SDS011;63189;51.240;9.964;2023-04-01T07:05:59;2.42;;;0.88;;
54909;SDS011;63189;51.240;9.964;2023-04-01T07:08:29;3.03;;;0.90;;
54909;SDS011;63189;51.240;9.964;2023-04-01T07:11:04;2.30;;;0.70;;
54909;SDS011;63189;51.240;9.964;2023-04-01T07:13:34;2.65;;;1.00;;
54909;SDS011;63189;51.240;9.964;2023-04-01T07:16:16;4.22;;;1.00;;
54909;SDS011;63189;51.240;9.964;2023-04-01T07:22:02;3.20;;;0.65;;
54909;SDS011;63189;51.240;9.964;2023-04-01T07:24:43;3.03;;;0.93;;
54909;SDS011;63189;51.240;9.964;2023-04-01T07:27:09;2.05;;;0.63;;
54909;SDS011;63189;51.240;9.964;2023-04-01T07:29:36;1.67;;;0.57;;
54909;SDS011;63189;51.240;9.964;2023-04-01T07:37:22;3.05;;;1.35;;
54909;SDS011;63189;51.240;9.964;2023-04-01T07:46:01;2.35;;;0.68;;
54909;SDS011;63189;51.240;9.964;2023-04-01T07:51:22;2.75;;;0.90;;
54909;SDS011;63189;51.240;9.964;2023-04-01T08:05:22;1.65;;;0.63;;
54909;SDS011;63189;51.240;9.964;2023-04-01T08:07:59;4.85;;;0.93;;
54909;SDS011;63189;51.240;9.964;2023-04-01T08:13:43;2.50;;;0.82;;
54909;SDS011;63189;51.240;9.964;2023-04-01T08:16:41;1.50;;;0.60;;
54909;SDS011;63189;51.240;9.964;2023-04-01T08:22:27;5.45;;;0.60;;
54909;SDS011;63189;51.240;9.964;2023-04-01T08:24:56;2.30;;;0.65;;
54909;SDS011;63189;51.240;9.964;2023-04-01T08:27:37;3.08;;;1.02;;
54909;SDS011;63189;51.240;9.964;2023-04-01T08:30:26;2.22;;;0.63;;
54909;SDS011;63189;51.240;9.964;2023-04-01T08:33:12;1.83;;;0.60;;
54909;SDS011;63189;51.240;9.964;2023-04-01T08:35:46;2.17;;;0.70;;
54909;SDS011;63189;51.240;9.964;2023-04-01T08:44:10;4.30;;;0.77;;
54909;SDS011;63189;51.240;9.964;2023-04-01T09:00:15;1.75;;;0.70;;
54909;SDS011;63189;51.240;9.964;2023-04-01T09:05:38;3.33;;;0.65;;
54909;SDS011;63189;51.240;9.964;2023-04-01T09:11:22;1.13;;;0.68;;
54909;SDS011;63189;51.240;9.964;2023-04-01T09:20:20;1.90;;;0.63;;
54909;SDS011;63189;51.240;9.964;2023-04-01T09:37:54;2.13;;;0.90;;
54909;SDS011;63189;51.240;9.964;2023-04-01T09:57:15;2.03;;;0.50;;
54909;SDS011;63189;51.240;9.964;2023-04-01T10:20:18;1.60;;;0.68;;
54909;SDS011;63189;51.240;9.964;2023-04-01T10:25:29;2.20;;;0.75;;
54909;SDS011;63189;51.240;9.964;2023-04-01T10:44:32;1.20;;;0.30;;
54909;SDS011;63189;51.240;9.964;2023-04-01T10:54:04;0.50;;;0.50;;
54909;SDS011;63189;51.240;9.964;2023-04-01T11:13:31;1.00;;;0.40;;
54909;SDS011;63189;51.240;9.964;2023-04-01T11:16:09;0.35;;;0.20;;
54909;SDS011;63189;51.240;9.964;2023-04-01T11:46:24;0.50;;;0.43;;
54909;SDS011;63189;51.240;9.964;2023-04-01T12:14:39;0.88;;;0.55;;
54909;SDS011;63189;51.240;9.964;2023-04-01T12:17:45;0.82;;;0.45;;
54909;SDS011;63189;51.240;9.964;2023-04-01T12:20:36;1.08;;;0.50;;
54909;SDS011;63189;51.240;9.964;2023-04-01T12:23:28;0.60;;;0.43;;
54909;SDS011;63189;51.240;9.964;2023-04-01T12:29:09;1.05;;;0.65;;
54909;SDS011;63189;51.240;9.964;2023-04-01T12:31:56;1.42;;;0.80;;
54909;SDS011;63189;51.240;9.964;2023-04-01T12:40:51;3.00;;;0.50;;
54909;SDS011;63189;51.240;9.964;2023-04-01T12:46:38;0.50;;;0.45;;
54909;SDS011;63189;51.240;9.964;2023-04-01T12:52:13;2.80;;;0.65;;
54909;SDS011;63189;51.240;9.964;2023-04-01T12:57:34;1.05;;;0.52;;
54909;SDS011;63189;51.240;9.964;2023-04-01T13:28:35;1.55;;;0.98;;
54909;SDS011;63189;51.240;9.964;2023-04-01T13:33:43;0.52;;;0.30;;
54909;SDS011;63189;51.240;9.964;2023-04-01T13:52:56;0.63;;;0.30;;
54909;SDS011;63189;51.240;9.964;2023-04-01T13:58:20;1.02;;;0.20;;
54909;SDS011;63189;51.240;9.964;2023-04-01T14:01:10;0.38;;;0.20;;
54909;SDS011;63189;51.240;9.964;2023-04-01T14:03:44;0.10;;;0.10;;
54909;SDS011;63189;51.240;9.964;2023-04-01T14:06:18;0.55;;;0.10;;
54909;SDS011;63189;51.240;9.964;2023-04-01T14:14:26;0.43;;;0.20;;
54909;SDS011;63189;51.240;9.964;2023-04-01T14:30:35;0.30;;;0.20;;
54909;SDS011;63189;51.240;9.964;2023-04-01T14:33:15;0.52;;;0.20;;
54909;SDS011;63189;51.240;9.964;2023-04-01T14:50:02;4.60;;;2.83;;
54909;SDS011;63189;51.240;9.964;2023-04-01T14:52:32;2.28;;;1.30;;
54909;SDS011;63189;51.240;9.964;2023-04-01T14:55:02;9.40;;;5.45;;
54909;SDS011;63189;51.240;9.964;2023-04-01T14:58:38;1.08;;;0.68;;
54909;SDS011;63189;51.240;9.964;2023-04-01T15:00:54;1.15;;;0.63;;
54909;SDS011;63189;51.240;9.964;2023-04-01T15:07:06;0.38;;;0.30;;
54909;SDS011;63189;51.240;9.964;2023-04-01T15:16:04;0.47;;;0.20;;
54909;SDS011;63189;51.240;9.964;2023-04-01T15:24:41;0.20;;;0.20;;
54909;SDS011;63189;51.240;9.964;2023-04-01T15:27:19;0.20;;;0.20;;
54909;SDS011;63189;51.240;9.964;2023-04-01T15:38:30;0.82;;;0.40;;
54909;SDS011;63189;51.240;9.964;2023-04-01T15:43:46;2.15;;;0.30;;
54909;SDS011;63189;51.240;9.964;2023-04-01T15:49:16;0.40;;;0.30;;
54909;SDS011;63189;51.240;9.964;2023-04-01T15:52:17;0.88;;;0.40;;
54909;SDS011;63189;51.240;9.964;2023-04-01T15:57:40;0.40;;;0.32;;
54909;SDS011;63189;51.240;9.964;2023-04-01T16:16:40;0.93;;;0.55;;
54909;SDS011;63189;51.240;9.964;2023-04-01T16:19:37;0.60;;;0.50;;
54909;SDS011;63189;51.240;9.964;2023-04-01T16:22:14;0.85;;;0.38;;
54909;SDS011;63189;51.240;9.964;2023-04-01T16:24:43;0.57;;;0.40;;
54909;SDS011;63189;51.240;9.964;2023-04-01T16:27:35;0.70;;;0.45;;
54909;SDS011;63189;51.240;9.964;2023-04-01T16:32:51;1.00;;;0.50;;
54909;SDS011;63189;51.240;9.964;2023-04-01T16:41:00;0.82;;;0.52;;
54909;SDS011;63189;51.240;9.964;2023-04-01T16:43:40;1.33;;;0.60;;
54909;SDS011;63189;51.240;9.964;2023-04-01T16:46:53;0.60;;;0.50;;
54909;SDS011;63189;51.240;9.964;2023-04-01T16:57:12;3.83;;;1.00;;
54909;SDS011;63189;51.240;9.964;2023-04-01T17:02:26;2.17;;;1.20;;
54909;SDS011;63189;51.240;9.964;2023-04-01T17:04:59;1.35;;;1.00;;
54909;SDS011;63189;51.240;9.964;2023-04-01T17:07:57;1.00;;;0.70;;
54909;SDS011;63189;51.240;9.964;2023-04-01T17:15:36;1.77;;;0.95;;
54909;SDS011;63189;51.240;9.964;2023-04-01T17:18:21;0.90;;;0.75;;
54909;SDS011;63189;51.240;9.964;2023-04-01T17:21:02;0.60;;;0.60;;
54909;SDS011;63189;51.240;9.964;2023-04-01T17:23:41;0.70;;;0.70;;
54909;SDS011;63189;51.240;9.964;2023-04-01T17:26:13;1.45;;;0.93;;
54909;SDS011;63189;51.240;9.964;2023-04-01T17:40:00;1.55;;;1.08;;
54909;SDS011;63189;51.240;9.964;2023-04-01T17:42:52;2.75;;;1.10;;
54909;SDS011;63189;51.240;9.964;2023-04-01T17:51:20;0.95;;;0.88;;
54909;SDS011;63189;51.240;9.964;2023-04-01T17:59:50;1.20;;;0.90;;
54909;SDS011;63189;51.240;9.964;2023-04-01T18:02:27;1.95;;;1.40;;
54909;SDS011;63189;51.240;9.964;2023-04-01T18:08:17;2.17;;;1.80;;
54909;SDS011;63189;51.240;9.964;2023-04-01T18:24:42;6.18;;;2.90;;
54909;SDS011;63189;51.240;9.964;2023-04-01T18:27:19;3.65;;;2.83;;
54909;SDS011;63189;51.240;9.964;2023-04-01T18:32:25;5.63;;;3.83;;
54909;SDS011;63189;51.240;9.964;2023-04-01T18:38:16;3.88;;;2.63;;
54909;SDS011;63189;51.240;9.964;2023-04-01T18:41:10;4.22;;;2.70;;
54909;SDS011;63189;51.240;9.964;2023-04-01T18:43:42;6.97;;;3.40;;
54909;SDS011;63189;51.240;9.964;2023-04-01T18:57:12;12.02;;;7.68;;
54909;SDS011;63189;51.240;9.964;2023-04-01T18:59:41;7.85;;;4.20;;
54909;SDS011;63189;51.240;9.964;2023-04-01T19:07:41;1.88;;;0.98;;
54909;SDS011;63189;51.240;9.964;2023-04-01T19:18:26;0.85;;;0.70;;
54909;SDS011;63189;51.240;9.964;2023-04-01T19:20:57;1.35;;;0.82;;
54909;SDS011;63189;51.240;9.964;2023-04-01T19:26:33;0.77;;;0.70;;
54909;SDS011;63189;51.240;9.964;2023-04-01T19:43:23;1.27;;;0.90;;
54909;SDS011;63189;51.240;9.964;2023-04-01T19:51:21;0.52;;;0.47;;
54909;SDS011;63189;51.240;9.964;2023-04-01T19:53:51;0.70;;;0.60;;
54909;SDS011;63189;51.240;9.964;2023-04-01T19:56:23;0.98;;;0.30;;
54909;SDS011;63189;51.240;9.964;2023-04-01T20:01:59;0.28;;;0.20;;
54909;SDS011;63189;51.240;9.964;2023-04-01T20:04:42;0.80;;;0.28;;
54909;SDS011;63189;51.240;9.964;2023-04-01T20:09:53;0.47;;;0.20;;
54909;SDS011;63189;51.240;9.964;2023-04-01T20:15:28;0.55;;;0.40;;
54909;SDS011;63189;51.240;9.964;2023-04-01T20:17:56;0.60;;;0.40;;
54909;SDS011;63189;51.240;9.964;2023-04-01T20:20:26;0.30;;;0.20;;
54909;SDS011;63189;51.240;9.964;2023-04-01T20:22:56;0.93;;;0.40;;
54909;SDS011;63189;51.240;9.964;2023-04-01T20:25:40;0.43;;;0.35;;
54909;SDS011;63189;51.240;9.964;2023-04-01T20:30:57;1.17;;;0.40;;
54909;SDS011;63189;51.240;9.964;2023-04-01T20:34:00;1.08;;;0.40;;
54909;SDS011;63189;51.240;9.964;2023-04-01T20:39:44;1.25;;;0.60;;
54909;SDS011;63189;51.240;9.964;2023-04-01T20:51:46;0.95;;;0.65;;
54909;SDS011;63189;51.240;9.964;2023-04-01T20:54:26;1.95;;;1.30;;
54909;SDS011;63189;51.240;9.964;2023-04-01T20:59:59;2.63;;;1.80;;
54909;SDS011;63189;51.240;9.964;2023-04-01T21:02:54;3.38;;;1.77;;
54909;SDS011;63189;51.240;9.964;2023-04-01T21:22:28;1.77;;;1.20;;
54909;SDS011;63189;51.240;9.964;2023-04-01T21:34:07;2.97;;;2.30;;
54909;SDS011;63189;51.240;9.964;2023-04-01T21:36:45;3.72;;;2.50;;
54909;SDS011;63189;51.240;9.964;2023-04-01T21:45:07;3.08;;;2.17;;
54909;SDS011;63189;51.240;9.964;2023-04-01T21:50:39;3.92;;;2.20;;
54909;SDS011;63189;51.240;9.964;2023-04-01T22:01:21;1.88;;;1.65;;
54909;SDS011;63189;51.240;9.964;2023-04-01T22:12:10;1.02;;;0.65;;
54909;SDS011;63189;51.240;9.964;2023-04-01T22:14:48;0.98;;;0.80;;
54909;SDS011;63189;51.240;9.964;2023-04-01T22:20:15;0.80;;;0.80;;
54909;SDS011;63189;51.240;9.964;2023-04-01T22:23:18;0.60;;;0.60;;
54909;SDS011;63189;51.240;9.964;2023-04-01T22:25:55;1.30;;;0.70;;
54909;SDS011;63189;51.240;9.964;2023-04-01T22:28:27;1.20;;;0.77;;
54909;SDS011;63189;51.240;9.964;2023-04-01T22:31:00;1.60;;;0.70;;
54909;SDS011;63189;51.240;9.964;2023-04-01T22:39:55;1.52;;;0.70;;
54909;SDS011;63189;51.240;9.964;2023-04-01T22:50:36;5.80;;;0.75;;
54909;SDS011;63189;51.240;9.964;2023-04-01T22:53:06;1.88;;;0.65;;
54909;SDS011;63189;51.240;9.964;2023-04-01T22:55:41;1.20;;;0.90;;
54909;SDS011;63189;51.240;9.964;2023-04-01T22:58:18;1.10;;;0.90;;
54909;SDS011;63189;51.240;9.964;2023-04-01T23:00:55;1.05;;;0.82;;
54909;SDS011;63189;51.240;9.964;2023-04-01T23:03:31;1.27;;;1.00;;
54909;SDS011;63189;51.240;9.964;2023-04-01T23:06:02;1.30;;;1.00;;
54909;SDS011;63189;51.240;9.964;2023-04-01T23:16:53;1.80;;;1.40;;
54909;SDS011;63189;51.240;9.964;2023-04-01T23:19:31;2.47;;;1.58;;
54909;SDS011;63189;51.240;9.964;2023-04-01T23:22:14;2.35;;;1.80;;
54909;SDS011;63189;51.240;9.964;2023-04-01T23:24:53;2.80;;;1.88;;
54909;SDS011;63189;51.240;9.964;2023-04-01T23:27:30;2.47;;;1.63;;
54909;SDS011;63189;51.240;9.964;2023-04-01T23:30:02;3.17;;;1.70;;
54909;SDS011;63189;51.240;9.964;2023-04-01T23:32:28;3.60;;;1.58;;
54909;SDS011;63189;51.240;9.964;2023-04-01T23:34:58;2.30;;;1.70;;
54909;SDS011;63189;51.240;9.964;2023-04-01T23:37:25;2.30;;;1.63;;
54909;SDS011;63189;51.240;9.964;2023-04-01T23:39:53;2.13;;;1.63;;
54909;SDS011;63189;51.240;9.964;2023-04-01T23:45:00;3.20;;;1.50;;
54909;SDS011;63189;51.240;9.964;2023-04-01T23:52:51;2.00;;;1.35;;
54909;SDS011;63189;51.240;9.964;2023-04-01T23:55:28;2.53;;;1.60;;
54909;SDS011;63189;51.240;9.964;2023-04-01T23:58:12;2.15;;;1.23;;
